Time;durP1;ratioP1;P1;durP2;ratioP2;P2;SDS_P1;SDS_P2;PMS_P1;PMS_P2;Temp;Humidity;BMP_temperature;BMP_pressure;BME280_temperature;BME280_humidity;BME280_pressure;Samples;Min_cycle;Max_cycle;Signal;HPM_P1;HPM_P2
2021/12/25 00:01:04;;;;;;;14.98;10.38;;;;;;;2.35;71.30;98449.06;1734754;81;21018;-59
2021/12/25 00:03:32;;;;;;;18.85;10.65;;;;;;;2.35;71.37;98440.46;1732268;80;21066;-59
2021/12/25 00:05:59;;;;;;;15.65;10.30;;;;;;;2.35;71.43;98436.56;1729331;81;21080;-59
2021/12/25 00:08:28;;;;;;;17.75;10.00;;;;;;;2.45;71.39;98430.20;1736854;81;21845;-59
2021/12/25 00:10:56;;;;;;;14.53;9.75;;;;;;;2.58;71.20;98419.21;1727864;80;21547;-59
2021/12/25 00:13:22;;;;;;;17.73;10.30;;;;;;;2.65;71.13;98433.35;1733616;80;20983;-61
2021/12/25 00:15:50;;;;;;;17.82;9.48;;;;;;;2.65;71.19;98422.15;1725862;80;21102;-59
2021/12/25 00:18:17;;;;;;;17.92;10.50;;;;;;;2.65;71.17;98419.07;1730710;80;21086;-61
2021/12/25 00:20:43;;;;;;;14.00;8.98;;;;;;;2.65;71.17;98411.77;1732644;81;21150;-60
2021/12/25 00:23:10;;;;;;;14.28;9.10;;;;;;;2.63;71.13;98408.47;1735453;81;21344;-60
2021/12/25 00:25:46;;;;;;;14.58;9.88;;;;;;;2.69;71.14;98404.06;1709074;82;21078;-60
2021/12/25 00:31:08;;;;;;;18.70;10.80;;;;;;;2.89;70.71;98416.32;1734023;81;21110;-60
2021/12/25 00:33:51;;;;;;;16.42;9.90;;;;;;;2.90;70.68;98410.64;1728652;80;22178;-60
2021/12/25 00:36:00;;;;;;;16.52;10.30;;;;;;;2.89;70.63;98422.81;1726640;80;21030;-60
2021/12/25 00:38:28;;;;;;;16.93;11.12;;;;;;;2.87;70.54;98423.39;1709065;82;21063;-60
2021/12/25 00:40:54;;;;;;;14.13;9.18;;;;;;;2.85;70.56;98414.08;1709477;82;21074;-60
2021/12/25 00:43:21;;;;;;;13.18;8.60;;;;;;;2.92;70.44;98426.44;1729761;80;21058;-60
2021/12/25 00:45:47;;;;;;;14.98;9.70;;;;;;;3.06;70.09;98416.27;1727497;80;21138;-60
2021/12/25 00:48:14;;;;;;;16.70;8.98;;;;;;;3.15;69.88;98422.48;1734459;80;21077;-60
2021/12/25 00:50:41;;;;;;;16.25;10.65;;;;;;;3.15;69.77;98420.70;1728022;81;21063;-60
2021/12/25 00:53:07;;;;;;;14.68;9.55;;;;;;;3.14;69.67;98417.77;1732516;81;21046;-60
2021/12/25 00:55:33;;;;;;;16.40;9.98;;;;;;;3.13;69.56;98408.31;1733920;81;21063;-60
2021/12/25 00:58:00;;;;;;;14.83;9.88;;;;;;;3.12;69.50;98413.16;1705284;81;21173;-60
2021/12/25 01:00:29;;;;;;;14.47;9.13;;;;;;;3.10;69.54;98405.96;1733402;80;21532;-60
2021/12/25 01:02:55;;;;;;;15.72;9.25;;;;;;;3.18;69.40;98407.11;1734464;80;21161;-60
2021/12/25 01:05:21;;;;;;;12.78;7.72;;;;;;;3.31;69.14;98411.66;1728385;81;21098;-59
2021/12/25 01:07:48;;;;;;;13.98;9.55;;;;;;;3.36;68.91;98397.81;1736786;81;21097;-59
2021/12/25 01:10:19;;;;;;;11.83;8.43;;;;;;;3.35;68.86;98396.99;1708326;80;21052;-60
2021/12/25 01:15:28;;;;;;;12.53;8.23;;;;;;;3.34;68.71;98399.72;1710769;81;21429;-59
2021/12/25 01:21:02;;;;;;;15.20;8.10;;;;;;;3.35;68.58;98397.48;1732759;81;21089;-59
2021/12/25 01:23:49;;;;;;;11.80;7.67;;;;;;;3.49;68.34;98402.34;1730544;80;21157;-59
2021/12/25 01:37:18;;;;;;;15.13;9.63;;;;;;;3.52;68.05;98409.09;1725948;80;21178;-58
2021/12/25 01:48:30;;;;;;;14.98;9.00;;;;;;;3.75;67.52;98411.09;1554958;87;21065;-60
2021/12/25 01:50:56;;;;;;;15.08;9.08;;;;;;;3.74;67.44;98413.33;1589096;87;21097;-60
2021/12/25 01:53:23;;;;;;;13.98;7.75;;;;;;;3.75;67.36;98406.34;1578553;87;21059;-60
2021/12/25 01:55:49;;;;;;;14.28;8.45;;;;;;;3.74;67.26;98403.41;1614706;87;21112;-59
2021/12/25 01:58:16;;;;;;;12.55;8.53;;;;;;;3.74;67.15;98429.42;1588744;88;21146;-61
2021/12/25 02:00:49;;;;;;;14.53;9.13;;;;;;;3.73;67.16;98410.38;1541817;90;21098;-59
2021/12/25 02:03:17;;;;;;;11.75;7.50;;;;;;;3.79;67.10;98405.16;1584787;88;21854;-59
2021/12/25 02:05:44;;;;;;;14.13;8.10;;;;;;;3.93;66.82;98410.00;1617294;87;21746;-59
2021/12/25 02:08:11;;;;;;;12.35;7.65;;;;;;;4.01;66.54;98422.38;1588548;88;21085;-59
2021/12/25 02:10:38;;;;;;;13.28;8.08;;;;;;;4.01;66.44;98429.70;1573672;88;21141;-59
2021/12/25 02:13:04;;;;;;;12.47;8.28;;;;;;;4.01;66.34;98424.98;1574091;88;21580;-60
2021/12/25 02:15:31;;;;;;;15.20;9.28;;;;;;;3.99;66.42;98425.59;1561372;89;21114;-61
2021/12/25 02:21:16;;;;;;;;;;;;;;;3.95;66.33;98432.00;1621384;87;21122;-60
2021/12/25 02:23:38;;;;;;;13.75;8.73;;;;;;;3.91;66.39;98425.75;1587067;87;20506;-60
2021/12/25 02:26:05;;;;;;;13.72;7.80;;;;;;;3.85;66.55;98425.43;1587905;88;21126;-60
2021/12/25 02:28:32;;;;;;;13.98;8.23;;;;;;;3.97;66.40;98424.42;1609128;88;21176;-60
2021/12/25 02:31:07;;;;;;;14.85;8.43;;;;;;;4.07;66.17;98425.30;1598670;88;21106;-61
2021/12/25 02:33:34;;;;;;;11.22;7.80;;;;;;;4.12;66.09;98425.38;1601879;88;21055;-60
2021/12/25 02:36:00;;;;;;;13.20;8.18;;;;;;;4.12;66.00;98427.97;1612712;87;21575;-60
2021/12/25 02:38:27;;;;;;;11.75;7.40;;;;;;;4.12;65.91;98435.78;1597173;88;21114;-59
2021/12/25 02:40:54;;;;;;;13.58;7.53;;;;;;;4.12;65.90;98441.83;1620500;86;21149;-60
2021/12/25 02:43:20;;;;;;;11.95;7.30;;;;;;;4.12;65.86;98448.34;1610241;87;21067;-59
2021/12/25 02:45:47;;;;;;;12.50;7.65;;;;;;;4.11;65.85;98444.08;1619408;87;21095;-61
2021/12/25 02:48:16;;;;;;;11.50;6.60;;;;;;;4.12;65.89;98460.51;1582638;89;21075;-59
2021/12/25 02:50:43;;;;;;;9.93;6.33;;;;;;;4.20;65.81;98464.14;1611075;86;21164;-58
2021/12/25 02:53:10;;;;;;;13.62;6.25;;;;;;;4.34;65.56;98464.27;1636627;86;21236;-59
2021/12/25 02:55:39;;;;;;;14.85;7.40;;;;;;;4.43;65.39;98467.86;1631539;86;21063;-60
2021/12/25 02:58:06;;;;;;;13.83;7.05;;;;;;;4.43;65.18;98477.80;1605712;87;21065;-60
2021/12/25 03:00:51;;;;;;;11.60;7.05;;;;;;;4.42;65.16;98479.22;1638870;86;21109;-60
2021/12/25 03:03:17;;;;;;;15.40;7.53;;;;;;;4.43;65.13;98480.88;1605003;87;21029;-58
2021/12/25 03:05:44;;;;;;;11.78;7.12;;;;;;;4.40;65.20;98481.95;1607533;86;21185;-58
2021/12/25 03:08:12;;;;;;;13.03;7.37;;;;;;;4.38;65.17;98474.75;1628783;86;21066;-59
2021/12/25 03:10:49;;;;;;;10.45;6.47;;;;;;;4.37;65.22;98470.98;1592695;88;21584;-59
2021/12/25 03:13:29;;;;;;;11.88;7.15;;;;;;;4.36;65.31;98479.77;1637653;86;21773;-59
2021/12/25 03:15:46;;;;;;;11.55;6.85;;;;;;;4.35;65.38;98485.42;1628177;86;21079;-59
2021/12/25 03:18:17;;;;;;;10.98;6.30;;;;;;;4.41;65.33;98491.42;1633460;86;21303;-59
2021/12/25 03:20:46;;;;;;;10.85;5.75;;;;;;;4.54;65.09;98495.12;1628025;86;21098;-59
2021/12/25 03:23:17;;;;;;;10.43;5.72;;;;;;;4.63;64.99;98508.66;1632240;86;21008;-59
2021/12/25 03:25:46;;;;;;;12.55;6.08;;;;;;;4.64;64.98;98516.83;1629156;86;21121;-59
2021/12/25 03:28:14;;;;;;;11.30;6.30;;;;;;;4.65;64.99;98515.03;1631435;86;21081;-60
2021/12/25 03:30:41;;;;;;;10.60;5.12;;;;;;;4.62;65.23;98529.63;1635937;86;21835;-60
2021/12/25 03:33:11;;;;;;;9.08;5.40;;;;;;;4.62;65.39;98532.23;1631527;86;21097;-59
2021/12/25 03:35:38;;;;;;;10.68;5.50;;;;;;;4.60;65.52;98537.56;1629901;86;21091;-59
2021/12/25 03:38:08;;;;;;;9.38;5.45;;;;;;;4.58;65.63;98530.36;1635508;86;21154;-60
2021/12/25 03:40:35;;;;;;;9.95;5.03;;;;;;;4.57;65.85;98534.40;1640356;85;21158;-60
2021/12/25 03:43:03;;;;;;;7.62;4.35;;;;;;;4.62;65.98;98546.55;1635589;85;22457;-59
2021/12/25 03:45:31;;;;;;;7.72;4.15;;;;;;;4.71;65.86;98547.09;1640187;85;21054;-59
2021/12/25 03:48:11;;;;;;;8.95;4.40;;;;;;;4.78;65.71;98550.81;1634806;86;21180;-59
2021/12/25 03:53:38;;;;;;;8.55;4.55;;;;;;;4.73;65.77;98567.32;1632252;85;21638;-58
2021/12/25 03:58:38;;;;;;;13.65;4.15;;;;;;;4.66;65.90;98577.92;1634770;85;21075;-59
2021/12/25 04:01:28;;;;;;;9.15;4.70;;;;;;;4.62;65.84;98583.87;1632415;86;21560;-59
2021/12/25 04:03:51;;;;;;;9.35;4.08;;;;;;;4.66;65.75;98600.06;1607863;86;21131;-59
2021/12/25 04:06:12;;;;;;;6.53;3.58;;;;;;;4.77;65.33;98603.06;1642784;86;21104;-59
2021/12/25 04:08:45;;;;;;;6.58;3.27;;;;;;;4.84;65.05;98595.06;1640499;85;21610;-59
2021/12/25 04:11:14;;;;;;;7.62;3.90;;;;;;;4.81;64.99;98608.38;1628306;85;21078;-59
2021/12/25 04:13:38;;;;;;;6.70;3.83;;;;;;;4.79;65.08;98615.47;1634337;85;21087;-59
2021/12/25 04:16:05;;;;;;;9.78;4.17;;;;;;;4.76;65.35;98627.00;1602456;86;21107;-59
2021/12/25 04:18:32;;;;;;;9.45;4.53;;;;;;;4.72;65.64;98637.31;1609617;86;21711;-59
2021/12/25 04:20:58;;;;;;;7.62;3.40;;;;;;;4.68;65.97;98650.27;1636054;85;21088;-59
2021/12/25 04:23:27;;;;;;;7.08;4.03;;;;;;;4.68;66.50;98679.41;1635566;86;21078;-59
2021/12/25 04:25:56;;;;;;;7.67;3.95;;;;;;;4.72;66.70;98682.09;1634482;86;21086;-60
2021/12/25 04:28:53;;;;;;;7.00;3.65;;;;;;;4.70;66.80;98674.40;1633680;85;21105;-60
2021/12/25 04:50:15;;;;;;;4.60;2.02;;;;;;;4.26;67.55;98747.40;1591240;87;21074;-59
2021/12/25 05:03:45;;;;;;;10.25;3.37;;;;;;;4.21;68.43;98780.78;1545117;90;21023;-59
2021/12/25 05:06:19;;;;;;;7.00;2.80;;;;;;;4.10;68.75;98796.42;1624811;86;21055;-59
2021/12/25 05:08:47;;;;;;;6.62;2.58;;;;;;;4.06;69.16;98796.31;1601661;86;21059;-60
2021/12/25 05:11:13;;;;;;;5.78;2.35;;;;;;;3.98;69.18;98802.11;1632879;86;21111;-59
2021/12/25 05:13:39;;;;;;;6.08;2.22;;;;;;;3.82;69.52;98801.19;1625401;86;21482;-61
2021/12/25 05:16:06;;;;;;;5.90;2.45;;;;;;;3.81;69.45;98804.72;1606551;87;21523;-60
2021/12/25 05:18:32;;;;;;;6.00;2.72;;;;;;;3.81;69.38;98805.20;1584089;87;21670;-60
2021/12/25 05:20:59;;;;;;;5.22;2.42;;;;;;;3.78;69.40;98807.56;1589618;87;21112;-60
2021/12/25 05:23:25;;;;;;;7.03;3.42;;;;;;;3.72;69.51;98818.45;1619321;86;21885;-60
2021/12/25 05:25:52;;;;;;;5.65;2.27;;;;;;;3.63;69.48;98824.34;1623278;86;21135;-60
2021/12/25 05:28:24;;;;;;;5.45;2.65;;;;;;;3.56;68.85;98820.56;1624924;86;21103;-59
2021/12/25 05:30:46;;;;;;;5.78;2.40;;;;;;;3.48;69.03;98829.78;1600473;86;21584;-58
2021/12/25 05:33:31;;;;;;;5.78;2.55;;;;;;;3.45;69.21;98843.49;1608537;85;21828;-58
2021/12/25 05:36:03;;;;;;;6.17;2.62;;;;;;;3.47;69.27;98862.41;1609605;85;21039;-59
2021/12/25 05:38:34;;;;;;;5.75;2.58;;;;;;;3.60;69.32;98864.89;1639247;85;21120;-60
2021/12/25 05:41:04;;;;;;;5.55;2.42;;;;;;;3.64;69.34;98874.13;1643240;85;20999;-59
2021/12/25 05:43:31;;;;;;;6.80;2.90;;;;;;;3.62;69.64;98860.42;1620668;86;21118;-58
2021/12/25 05:45:57;;;;;;;7.37;3.08;;;;;;;3.66;69.69;98877.44;1637884;85;21813;-60
2021/12/25 05:48:35;;;;;;;6.30;2.80;;;;;;;3.64;69.46;98879.34;1617345;85;21161;-59
2021/12/25 05:51:19;;;;;;;6.37;2.40;;;;;;;3.59;69.53;98894.46;1631802;85;23280;-59
2021/12/25 05:54:04;;;;;;;5.20;2.30;;;;;;;3.51;69.19;98906.73;1633200;85;21599;-60
2021/12/25 05:56:49;;;;;;;5.65;2.17;;;;;;;3.46;68.91;98923.14;1633611;85;21543;-59
2021/12/25 05:59:34;;;;;;;5.15;2.00;;;;;;;3.48;68.54;98914.75;1633117;85;21730;-60
2021/12/25 06:02:05;;;;;;;4.95;1.82;;;;;;;3.42;68.27;98932.95;1610942;85;21149;-60
2021/12/25 06:04:34;;;;;;;5.12;2.35;;;;;;;3.31;67.80;98925.09;1631745;85;22048;-58
2021/12/25 06:07:02;;;;;;;4.90;1.72;;;;;;;3.24;68.02;98945.99;1629600;85;21136;-60
2021/12/25 06:09:29;;;;;;;5.70;2.33;;;;;;;3.18;67.98;98963.32;1640489;85;21085;-65
2021/12/25 06:11:56;;;;;;;5.03;2.27;;;;;;;3.10;67.94;98959.52;1628045;85;21053;-59
2021/12/25 06:14:22;;;;;;;5.50;2.00;;;;;;;3.02;68.12;98980.50;1610097;85;21101;-60
2021/12/25 06:16:51;;;;;;;5.65;2.00;;;;;;;2.95;68.25;98983.52;1610042;87;21863;-59
2021/12/25 06:19:19;;;;;;;4.47;1.72;;;;;;;2.96;68.03;98988.27;1621972;85;21067;-59
2021/12/25 06:21:51;;;;;;;6.70;1.42;;;;;;;3.01;67.64;98997.87;1628088;85;21754;-60
2021/12/25 06:24:20;;;;;;;5.78;2.35;;;;;;;3.02;67.54;98999.51;1603913;85;21062;-59
2021/12/25 06:26:54;;;;;;;5.00;1.98;;;;;;;2.98;67.38;99017.57;1629523;85;21094;-59
2021/12/25 06:29:39;;;;;;;7.75;2.98;;;;;;;2.91;66.65;99007.26;1612088;87;21672;-59
2021/12/25 06:32:19;;;;;;;6.47;2.60;;;;;;;2.83;66.14;99009.08;1592158;85;21110;-59
2021/12/25 06:34:48;;;;;;;5.80;2.77;;;;;;;2.78;66.21;99021.56;1621616;86;21046;-60
2021/12/25 06:37:19;;;;;;;7.17;3.02;;;;;;;2.73;66.42;99036.16;1622088;85;22197;-59
2021/12/25 06:39:48;;;;;;;6.40;2.60;;;;;;;2.69;66.17;99042.52;1628440;85;22295;-59
2021/12/25 06:42:15;;;;;;;6.30;2.65;;;;;;;2.65;65.98;99033.26;1624555;85;21157;-59
2021/12/25 06:44:43;;;;;;;5.55;2.87;;;;;;;2.64;66.04;99056.73;1617655;85;21126;-59
2021/12/25 06:47:09;;;;;;;6.62;3.20;;;;;;;2.64;65.53;99060.62;1622107;85;21705;-58
2021/12/25 06:49:38;;;;;;;5.92;2.27;;;;;;;2.71;65.22;99061.41;1634211;85;22061;-59
2021/12/25 06:52:10;;;;;;;7.17;3.25;;;;;;;2.73;64.27;99062.14;1610086;87;21127;-59
2021/12/25 06:54:54;;;;;;;7.50;3.98;;;;;;;2.69;64.62;99078.87;1631834;85;21165;-58
2021/12/25 06:57:32;;;;;;;7.80;3.00;;;;;;;2.64;64.37;99074.47;1612809;86;21063;-58
2021/12/25 06:59:59;;;;;;;6.35;2.95;;;;;;;2.55;64.17;99100.57;1633388;85;21619;-57
2021/12/25 07:02:25;;;;;;;6.83;3.55;;;;;;;2.49;64.08;99098.85;1615085;87;21115;-57
2021/12/25 07:05:11;;;;;;;7.53;3.20;;;;;;;2.45;64.22;99092.22;1630102;85;21082;-58
2021/12/25 07:07:56;;;;;;;15.55;7.45;;;;;;;2.45;63.63;99090.44;1610850;86;21146;-57
2021/12/25 07:10:24;;;;;;;15.80;7.00;;;;;;;2.43;63.66;99103.17;1578484;88;21125;-58
2021/12/25 07:12:55;;;;;;;10.18;4.47;;;;;;;2.44;63.70;99103.52;1578263;87;22400;-58
2021/12/25 07:15:24;;;;;;;7.62;3.62;;;;;;;2.41;63.28;99113.66;1592278;87;21141;-59
2021/12/25 07:17:52;;;;;;;7.28;3.67;;;;;;;2.38;62.74;99138.05;1578842;88;21080;-59
2021/12/25 07:20:20;;;;;;;8.48;3.80;;;;;;;2.38;62.85;99117.28;1570758;89;21458;-59
2021/12/25 07:22:58;;;;;;;7.35;3.42;;;;;;;2.39;62.70;99133.70;1504679;92;21033;-58
2021/12/25 07:25:30;;;;;;;7.37;3.62;;;;;;;2.40;62.88;99131.45;1572097;88;21082;-59
2021/12/25 07:27:58;;;;;;;7.75;4.20;;;;;;;2.39;62.54;99133.23;1608110;87;21017;-58
2021/12/25 07:30:24;;;;;;;7.58;4.00;;;;;;;2.42;62.68;99139.97;1621019;86;21041;-58
2021/12/25 07:32:51;;;;;;;8.53;3.60;;;;;;;2.43;62.54;99167.61;1620693;86;21238;-58
2021/12/25 07:35:17;;;;;;;7.28;3.90;;;;;;;2.39;61.70;99152.70;1621676;86;21107;-58
2021/12/25 07:37:44;;;;;;;8.28;3.75;;;;;;;2.40;61.86;99162.17;1603802;87;21067;-58
2021/12/25 07:40:12;;;;;;;8.03;3.50;;;;;;;2.39;62.02;99176.06;1620001;86;21103;-58
2021/12/25 07:42:39;;;;;;;7.70;3.27;;;;;;;2.43;61.82;99196.17;1631289;86;21011;-58
2021/12/25 07:45:11;;;;;;;8.53;4.30;;;;;;;2.40;61.85;99196.36;1610970;87;21200;-58
2021/12/25 07:47:41;;;;;;;8.50;3.75;;;;;;;2.43;61.44;99193.57;1605334;87;21083;-57
2021/12/25 07:50:08;;;;;;;7.12;3.95;;;;;;;2.48;61.44;99211.45;1631513;86;21171;-57
2021/12/25 07:52:36;;;;;;;6.62;3.52;;;;;;;2.51;61.29;99214.68;1608641;86;21467;-57
2021/12/25 07:55:03;;;;;;;6.83;3.30;;;;;;;2.53;61.41;99214.58;1607142;87;21838;-57
2021/12/25 07:57:31;;;;;;;7.83;3.62;;;;;;;2.57;61.47;99226.42;1632258;86;21706;-58
2021/12/25 07:59:58;;;;;;;8.88;4.12;;;;;;;2.58;61.56;99226.80;1632186;86;21054;-58
2021/12/25 08:02:25;;;;;;;9.68;4.00;;;;;;;2.64;61.74;99235.49;1633703;86;21102;-59
2021/12/25 08:04:52;;;;;;;8.53;3.72;;;;;;;2.67;61.60;99243.06;1632159;86;21154;-58
2021/12/25 08:07:18;;;;;;;7.20;3.42;;;;;;;2.69;61.40;99240.36;1628651;86;21115;-58
2021/12/25 08:09:45;;;;;;;7.85;3.72;;;;;;;2.69;61.38;99248.16;1627967;86;21866;-59
2021/12/25 08:12:12;;;;;;;7.72;3.62;;;;;;;2.65;61.38;99265.71;1630921;86;21195;-59
2021/12/25 08:14:38;;;;;;;6.75;3.65;;;;;;;2.68;61.28;99258.20;1632710;86;21086;-59
2021/12/25 08:17:05;;;;;;;8.50;3.92;;;;;;;2.66;61.07;99263.97;1597198;87;21078;-59
2021/12/25 08:19:33;;;;;;;9.43;4.45;;;;;;;2.63;60.81;99292.73;1622949;86;21105;-59
2021/12/25 08:22:18;;;;;;;9.33;4.22;;;;;;;2.64;60.49;99264.06;1604896;86;22161;-59
2021/12/25 08:25:04;;;;;;;7.15;3.65;;;;;;;2.65;59.67;99273.50;1627491;86;21820;-58
2021/12/25 08:27:38;;;;;;;19.25;4.10;;;;;;;2.68;59.06;99277.68;1579668;86;21126;-57
2021/12/25 08:30:15;;;;;;;10.48;5.00;;;;;;;2.75;58.97;99277.64;1553161;87;21118;-58
2021/12/25 08:33:00;;;;;;;10.88;4.83;;;;;;;2.77;58.69;99270.57;1629277;86;21071;-58
2021/12/25 08:35:40;;;;;;;8.88;4.40;;;;;;;2.83;58.47;99264.16;1589543;87;21392;-58
2021/12/25 08:38:07;;;;;;;9.55;4.60;;;;;;;2.83;58.29;99301.36;1603728;87;21065;-58
2021/12/25 08:40:33;;;;;;;8.33;3.95;;;;;;;2.85;57.53;99294.28;1631229;85;21047;-58
2021/12/25 08:43:02;;;;;;;8.18;4.20;;;;;;;2.79;57.02;99320.66;1603854;86;21564;-58
2021/12/25 08:45:49;;;;;;;9.20;4.70;;;;;;;2.75;56.92;99308.81;1620656;85;21559;-58
2021/12/25 08:48:23;;;;;;;9.48;4.67;;;;;;;2.68;57.35;99323.95;1638943;85;21221;-57
2021/12/25 08:50:54;;;;;;;9.80;4.55;;;;;;;2.63;56.89;99313.03;1621643;87;21145;-58
2021/12/25 08:53:21;;;;;;;8.13;3.92;;;;;;;2.62;57.07;99313.95;1607047;85;22398;-58
2021/12/25 08:55:49;;;;;;;9.10;4.22;;;;;;;2.59;56.93;99307.20;1630602;85;21079;-57
2021/12/25 08:58:16;;;;;;;9.05;3.85;;;;;;;2.59;56.69;99303.31;1629410;85;21161;-58
2021/12/25 09:00:44;;;;;;;8.18;4.42;;;;;;;2.59;56.69;99312.41;1625024;86;21076;-58
2021/12/25 09:03:11;;;;;;;8.03;4.62;;;;;;;2.56;57.10;99300.91;1596604;87;21089;-59
2021/12/25 09:05:38;;;;;;;9.53;4.80;;;;;;;2.61;57.11;99309.71;1606322;87;21008;-59
2021/12/25 09:08:05;;;;;;;9.23;5.05;;;;;;;2.63;56.68;99309.61;1635039;86;21090;-58
2021/12/25 09:10:34;;;;;;;10.93;5.35;;;;;;;2.66;56.26;99314.62;1636250;86;21085;-58
2021/12/25 09:13:00;;;;;;;8.80;4.62;;;;;;;2.68;56.27;99317.94;1635627;86;21093;-59
2021/12/25 09:15:27;;;;;;;7.83;4.37;;;;;;;2.68;56.42;99314.87;1640826;86;21626;-59
2021/12/25 09:17:54;;;;;;;11.45;5.00;;;;;;;2.69;56.28;99307.45;1631405;86;21166;-59
2021/12/25 09:20:21;;;;;;;11.30;4.85;;;;;;;2.69;56.38;99312.65;1640102;85;22042;-58
2021/12/25 09:22:48;;;;;;;10.05;5.40;;;;;;;2.71;56.46;99317.27;1633916;85;21118;-59
2021/12/25 09:28:05;;;;;;;8.73;4.67;;;;;;;2.73;56.52;99330.16;1782312;78;23394;-58
2021/12/25 09:30:32;;;;;;;8.60;4.65;;;;;;;2.73;56.52;99330.16;1752253;80;21525;-58
2021/12/25 09:32:59;;;;;;;8.15;4.28;;;;;;;2.77;55.70;99332.47;1737347;80;21078;-59
2021/12/25 09:35:25;;;;;;;9.58;5.25;;;;;;;2.83;55.62;99345.52;1749535;80;21516;-59
2021/12/25 09:37:52;;;;;;;9.28;4.67;;;;;;;2.85;55.51;99333.73;1686129;83;21058;-58
2021/12/25 09:40:18;;;;;;;8.03;4.35;;;;;;;2.90;55.70;99353.75;1664037;83;21170;-58
2021/12/25 09:42:44;;;;;;;11.00;5.83;;;;;;;2.98;55.78;99355.39;1667309;83;21025;-58
2021/12/25 09:45:12;;;;;;;11.78;5.10;;;;;;;3.08;56.14;99360.83;1693997;82;21235;-58
2021/12/25 09:47:38;;;;;;;9.50;4.87;;;;;;;3.20;56.32;99360.49;1689238;83;21085;-59
2021/12/25 09:50:06;;;;;;;10.53;5.25;;;;;;;3.31;56.20;99369.70;1689142;83;21137;-59
2021/12/25 09:52:33;;;;;;;9.43;5.25;;;;;;;3.34;55.42;99354.72;1695985;83;21150;-57
2021/12/25 09:55:00;;;;;;;17.80;6.25;;;;;;;3.38;55.35;99341.08;1695880;83;22022;-57
2021/12/25 09:57:26;;;;;;;11.03;5.80;;;;;;;3.42;55.49;99334.72;1656568;83;21255;-57
2021/12/25 09:59:53;;;;;;;8.68;4.70;;;;;;;3.50;55.48;99336.34;1691983;83;21103;-58
2021/12/25 10:02:20;;;;;;;10.08;4.83;;;;;;;3.55;54.46;99349.04;1692169;83;21014;-57
2021/12/25 10:04:52;;;;;;;13.50;6.05;;;;;;;3.51;53.94;99350.16;1667624;83;21110;-57
2021/12/25 10:07:25;;;;;;;10.20;5.67;;;;;;;3.49;54.03;99351.56;1681730;83;21032;-57
2021/12/25 10:10:10;;;;;;;12.37;5.70;;;;;;;3.45;54.27;99359.22;1699049;83;22067;-57
2021/12/25 10:12:45;;;;;;;9.13;5.30;;;;;;;3.40;53.69;99357.40;1686059;83;21089;-57
2021/12/25 10:15:19;;;;;;;10.13;4.45;;;;;;;3.18;52.33;99366.23;1698987;83;21659;-57
2021/12/25 10:17:56;;;;;;;10.80;3.90;;;;;;;3.01;51.64;99377.30;1715944;81;21476;-59
2021/12/25 10:20:31;;;;;;;6.58;3.20;;;;;;;2.87;51.28;99374.73;1668159;83;21674;-58
2021/12/25 10:23:09;;;;;;;9.37;5.20;;;;;;;2.62;50.82;99391.05;1675440;83;21159;-58
2021/12/25 10:25:46;;;;;;;9.63;3.95;;;;;;;2.62;50.82;99391.05;1695326;83;21599;-58
2021/12/25 10:28:15;;;;;;;10.15;6.40;;;;;;;2.50;51.17;99383.56;1670850;83;21064;-58
2021/12/25 10:30:50;;;;;;;10.72;6.65;;;;;;;2.44;51.55;99381.34;1672471;83;21109;-58
2021/12/25 10:33:30;;;;;;;9.70;5.25;;;;;;;2.41;52.69;99389.69;1738257;80;21117;-57
2021/12/25 10:36:07;;;;;;;9.53;4.25;;;;;;;2.44;52.37;99383.94;1739114;80;21155;-57
2021/12/25 10:38:37;;;;;;;6.47;3.42;;;;;;;2.45;52.28;99388.21;1740865;80;21114;-57
2021/12/25 10:41:17;;;;;;;9.55;4.33;;;;;;;2.43;52.49;99385.70;1722523;80;21078;-57
2021/12/25 10:43:43;;;;;;;7.37;3.83;;;;;;;2.41;52.68;99413.06;1724128;81;21505;-57
2021/12/25 10:46:09;;;;;;;11.48;4.80;;;;;;;2.41;53.11;99397.95;1699292;82;21090;-57
2021/12/25 10:48:36;;;;;;;8.00;3.77;;;;;;;2.49;53.01;99407.84;1736611;80;21181;-58
2021/12/25 10:51:02;;;;;;;9.98;4.22;;;;;;;2.57;52.89;99418.16;1739441;80;21133;-58
2021/12/25 10:53:41;;;;;;;7.60;3.62;;;;;;;2.66;52.84;99417.21;1737072;80;21079;-58
2021/12/25 10:56:11;;;;;;;10.43;4.25;;;;;;;2.71;52.51;99415.16;1716439;81;21215;-57
2021/12/25 10:58:37;;;;;;;8.15;3.58;;;;;;;2.71;52.01;99413.39;1738260;80;21071;-58
2021/12/25 11:01:05;;;;;;;7.20;3.27;;;;;;;2.72;51.10;99428.50;1735849;80;22885;-58
2021/12/25 11:03:38;;;;;;;8.73;3.58;;;;;;;2.70;50.32;99414.30;1732141;80;21758;-58
2021/12/25 11:06:09;;;;;;;6.45;3.25;;;;;;;2.69;49.79;99395.77;1733786;80;22300;-58
2021/12/25 11:08:37;;;;;;;8.18;3.30;;;;;;;2.75;50.00;99403.62;1719458;81;21110;-58
2021/12/25 11:11:10;;;;;;;7.50;3.05;;;;;;;2.81;48.59;99427.08;1719564;80;21078;-58
2021/12/25 11:13:45;;;;;;;8.08;3.37;;;;;;;2.81;47.95;99438.77;1735242;80;21054;-58
2021/12/25 11:16:30;;;;;;;5.55;2.55;;;;;;;2.73;45.90;99438.80;1731972;80;21026;-58
2021/12/25 11:19:16;;;;;;;6.70;2.10;;;;;;;2.67;44.72;99449.56;1739027;80;21086;-58
2021/12/25 11:21:49;;;;;;;5.62;2.20;;;;;;;2.58;44.23;99442.35;1746536;80;21051;-58
2021/12/25 11:24:22;;;;;;;5.70;2.07;;;;;;;2.51;43.27;99454.88;1743435;80;21018;-58
2021/12/25 11:27:02;;;;;;;7.40;2.40;;;;;;;2.44;42.69;99454.04;1734632;80;21113;-57
2021/12/25 11:29:31;;;;;;;7.75;2.20;;;;;;;2.39;42.61;99453.05;1722487;80;21103;-57
2021/12/25 11:31:58;;;;;;;4.40;1.87;;;;;;;2.39;40.62;99460.36;1735201;80;21126;-58
2021/12/25 11:34:25;;;;;;;6.80;2.58;;;;;;;2.41;40.95;99468.06;1752995;80;21049;-57
2021/12/25 11:36:54;;;;;;;8.18;2.22;;;;;;;2.44;40.85;99473.52;1739707;80;21065;-58
2021/12/25 11:39:25;;;;;;;5.22;1.70;;;;;;;2.48;40.83;99471.12;1728907;80;21075;-59
2021/12/25 11:41:58;;;;;;;5.75;1.98;;;;;;;2.46;40.82;99470.39;1729342;80;21068;-59
2021/12/25 11:44:44;;;;;;;5.33;1.92;;;;;;;2.46;40.99;99494.58;1731734;80;21110;-58
2021/12/25 11:47:39;;;;;;;11.68;2.98;;;;;;;2.46;40.35;99502.38;1726336;80;21000;-59
2021/12/25 11:50:10;;;;;;;10.78;4.03;;;;;;;2.45;41.17;99488.18;1738704;80;22294;-58
2021/12/25 11:52:46;;;;;;;6.78;2.20;;;;;;;2.53;41.34;99506.73;1725751;81;21162;-58
2021/12/25 11:56:00;;;;;;;7.22;2.90;;;;;;;2.59;40.83;99503.30;1740144;80;20925;-58
2021/12/25 12:00:40;;;;;;;5.75;2.08;;;;;;;2.51;39.46;99497.73;1717300;81;21063;-59
2021/12/25 12:03:08;;;;;;;8.00;2.00;;;;;;;2.46;38.81;99497.66;1728305;80;21305;-58
2021/12/25 12:05:36;;;;;;;5.28;1.98;;;;;;;2.38;39.01;99511.08;1727176;80;21137;-58
2021/12/25 12:08:12;;;;;;;5.55;2.15;;;;;;;2.32;38.82;99521.37;1718249;81;21516;-58
2021/12/25 12:11:01;;;;;;;6.40;2.40;;;;;;;2.24;39.11;99524.89;1717653;81;21138;-58
2021/12/25 12:13:48;;;;;;;8.63;2.10;;;;;;;2.17;38.95;99534.80;1645925;85;21065;-59
2021/12/25 12:16:45;;;;;;;8.65;2.50;;;;;;;2.13;39.47;99540.25;1617873;86;21185;-58
2021/12/25 12:19:41;;;;;;;5.65;2.15;;;;;;;2.09;39.72;99549.98;1676589;82;21103;-59
2021/12/25 12:22:20;;;;;;;6.75;2.60;;;;;;;2.04;40.01;99537.74;1723136;80;21706;-58
2021/12/25 12:25:15;;;;;;;7.17;2.52;;;;;;;2.06;40.97;99545.44;1736094;80;21557;-58
2021/12/25 12:27:38;;;;;;;8.28;2.45;;;;;;;2.10;40.98;99535.23;1751488;80;20967;-58
2021/12/25 12:30:14;;;;;;;6.83;2.30;;;;;;;2.17;41.31;99543.03;1726163;80;21050;-58
2021/12/25 12:32:43;;;;;;;5.33;1.67;;;;;;;2.14;40.72;99570.48;1708658;82;21539;-57
2021/12/25 12:35:31;;;;;;;6.42;1.92;;;;;;;1.99;40.42;99560.05;1742499;80;21462;-58
2021/12/25 12:38:38;;;;;;;4.85;1.57;;;;;;;1.87;39.52;99569.84;1733151;80;21089;-58
2021/12/25 12:41:19;;;;;;;7.05;2.12;;;;;;;1.83;39.76;99584.76;1728484;80;21066;-58
2021/12/25 12:43:56;;;;;;;5.85;2.08;;;;;;;1.76;40.05;99572.20;1729618;82;21076;-58
2021/12/25 12:46:25;;;;;;;4.33;1.50;;;;;;;1.76;39.37;99576.09;1739266;80;21150;-58
2021/12/25 12:49:07;;;;;;;5.78;1.92;;;;;;;1.73;39.59;99591.39;1714744;80;21029;-57
2021/12/25 12:51:37;;;;;;;5.53;1.98;;;;;;;1.75;40.10;99580.90;1724197;80;21095;-58
2021/12/25 12:54:04;;;;;;;5.22;2.10;;;;;;;1.82;40.14;99590.86;1724953;80;21838;-58
2021/12/25 12:56:30;;;;;;;5.28;1.67;;;;;;;1.89;38.93;99595.23;1734303;80;21041;-58
2021/12/25 12:58:57;;;;;;;8.20;2.17;;;;;;;1.83;37.87;99605.95;1711202;81;23254;-59
2021/12/25 13:01:25;;;;;;;5.53;2.20;;;;;;;1.78;38.57;99614.45;1749286;80;21467;-59
2021/12/25 13:04:02;;;;;;;6.17;2.00;;;;;;;1.75;39.05;99614.18;1740344;80;21007;-58
2021/12/25 13:06:31;;;;;;;5.95;1.75;;;;;;;1.77;39.17;99627.89;1739832;80;21093;-58
2021/12/25 13:09:05;;;;;;;4.47;1.47;;;;;;;1.95;37.70;99623.44;1742674;80;21105;-58